createdAt,value
2022-11-09T00:00:30.503Z,69.93
2022-11-09T00:06:10.265Z,69.60
2022-11-09T00:11:32.448Z,69.73
2022-11-09T00:16:59.662Z,69.09
2022-11-09T00:22:38.018Z,69.56
2022-11-09T00:28:01.545Z,69.21
2022-11-09T00:33:23.488Z,70.05
2022-11-09T00:38:51.686Z,69.54
2022-11-09T00:44:14.224Z,69.78
2022-11-09T00:49:41.957Z,70.24
2022-11-09T00:55:08.428Z,69.98
2022-11-09T01:00:31.476Z,70.30
2022-11-09T01:06:05.836Z,70.89
2022-11-09T01:11:31.872Z,70.62
2022-11-09T01:16:56.203Z,71.07
2022-11-09T01:22:29.141Z,71.17
2022-11-09T01:27:55.273Z,71.42
2022-11-09T01:33:27.086Z,71.02
2022-11-09T01:38:56.566Z,71.35
2022-11-09T01:44:24.907Z,71.22
2022-11-09T01:49:52.302Z,70.75
2022-11-09T01:55:19.941Z,71.14
2022-11-09T02:00:51.231Z,70.69
2022-11-09T02:06:23.055Z,71.08
2022-11-09T02:11:45.914Z,70.64
2022-11-09T02:17:36.250Z,70.67
2022-11-09T02:23:08.561Z,70.76
2022-11-09T02:28:35.770Z,71.18
2022-11-09T02:34:06.780Z,70.60
2022-11-09T02:39:49.556Z,70.84
2022-11-09T02:45:18.500Z,70.83
2022-11-09T02:51:04.562Z,71.21
2022-11-09T02:56:32.404Z,70.61
2022-11-09T03:02:18.740Z,70.69
2022-11-09T03:07:48.471Z,71.27
2022-11-09T03:19:18.902Z,70.95
2022-11-09T03:25:15.813Z,71.33
2022-11-09T03:31:10.575Z,70.99
2022-11-09T03:36:45.021Z,71.67
2022-11-09T03:42:09.200Z,71.76
2022-11-09T03:47:44.211Z,72.11
2022-11-09T03:53:15.244Z,72.14
2022-11-09T03:59:07.104Z,72.13
2022-11-09T04:04:43.076Z,71.95
2022-11-09T04:10:16.167Z,71.94
2022-11-09T04:15:43.412Z,72.22
2022-11-09T04:21:27.264Z,72.35
2022-11-09T04:26:58.116Z,72.86
2022-11-09T04:32:40.590Z,73.32
2022-11-09T04:38:09.549Z,73.51
2022-11-09T04:43:33.661Z,73.52
2022-11-09T04:49:06.010Z,73.74
2022-11-09T04:54:48.831Z,75.50
2022-11-09T05:00:13.577Z,76.78
2022-11-09T05:11:19.508Z,78.59
2022-11-09T05:16:45.134Z,79.14
2022-11-09T05:22:56.507Z,81.03
2022-11-09T05:28:32.411Z,81.26
2022-11-09T05:34:20.428Z,82.57
2022-11-09T05:39:45.230Z,83.62
2022-11-09T05:45:41.036Z,85.22
2022-11-09T05:50:58.724Z,86.15
2022-11-09T05:56:23.680Z,87.70
2022-11-09T06:01:49.887Z,88.25
2022-11-09T06:07:14.807Z,88.28
2022-11-09T06:12:46.400Z,89.21
2022-11-09T06:18:12.648Z,89.53
2022-11-09T06:23:38.263Z,90.34
2022-11-09T06:29:09.068Z,90.69
2022-11-09T06:34:37.858Z,91.48
2022-11-09T06:40:30.846Z,92.20
2022-11-09T06:52:41.611Z,92.92
2022-11-09T06:58:23.915Z,94.14
2022-11-09T07:04:05.697Z,94.49
2022-11-09T07:09:32.883Z,96.10
2022-11-09T07:15:11.413Z,97.20
2022-11-09T07:20:36.263Z,98.30
2022-11-09T07:26:03.498Z,99.48
2022-11-09T07:31:37.789Z,100.00
2022-11-09T07:37:16.314Z,100.00
2022-11-09T07:42:40.974Z,100.00
2022-11-09T07:53:46.593Z,100.00
2022-11-09T07:59:16.730Z,100.00
2022-11-09T08:04:41.219Z,100.00
2022-11-09T08:10:04.611Z,100.00
2022-11-09T08:15:37.170Z,100.00
2022-11-09T08:21:16.787Z,100.00
2022-11-09T08:26:49.602Z,100.00
2022-11-09T08:32:16.133Z,100.00
2022-11-09T08:37:48.168Z,100.00
2022-11-09T08:43:20.438Z,100.00
2022-11-09T08:48:44.532Z,100.00
2022-11-09T08:54:15.262Z,100.00
2022-11-09T08:59:46.221Z,100.00
2022-11-09T09:05:22.613Z,100.00
2022-11-09T09:10:56.540Z,100.00
2022-11-09T09:16:24.553Z,100.00
2022-11-09T09:21:49.697Z,100.00
2022-11-09T09:27:18.301Z,100.00
2022-11-09T09:32:42.926Z,100.00
2022-11-09T09:38:08.114Z,100.00
2022-11-09T09:43:43.023Z,100.00
2022-11-09T09:49:11.528Z,100.00
2022-11-09T09:54:46.190Z,99.80
2022-11-09T10:00:21.904Z,98.02
2022-11-09T10:05:59.259Z,96.48
2022-11-09T10:11:35.592Z,96.71
2022-11-09T10:17:10.550Z,95.53
2022-11-09T10:22:49.778Z,93.95
2022-11-09T10:28:16.299Z,93.43
2022-11-09T10:33:47.889Z,93.05
2022-11-09T10:39:23.697Z,91.91
2022-11-09T10:44:50.462Z,91.70
2022-11-09T10:50:31.452Z,90.19
2022-11-09T10:56:03.381Z,89.41
2022-11-09T11:01:28.307Z,88.50
2022-11-09T11:06:54.018Z,88.32
2022-11-09T11:12:27.389Z,87.90
2022-11-09T11:18:17.983Z,87.62
2022-11-09T11:23:48.848Z,87.19
2022-11-09T11:29:23.383Z,86.83
2022-11-09T11:35:00.281Z,86.72
2022-11-09T11:46:22.683Z,86.77
2022-11-09T11:52:01.876Z,87.03
2022-11-09T11:57:43.001Z,86.70
2022-11-09T12:03:40.744Z,86.76
2022-11-09T12:09:30.601Z,86.22
2022-11-09T12:21:15.061Z,85.96
2022-11-09T12:27:18.283Z,85.48
2022-11-09T12:32:59.028Z,85.07
2022-11-09T12:38:40.730Z,84.51
2022-11-09T12:44:19.374Z,84.15
2022-11-09T12:49:50.275Z,83.37
2022-11-09T12:55:16.762Z,82.98
2022-11-09T13:00:52.399Z,82.83
2022-11-09T13:06:31.561Z,82.53
2022-11-09T13:11:56.750Z,82.73
2022-11-09T13:18:03.199Z,82.89
2022-11-09T13:29:26.907Z,83.03
2022-11-09T13:34:53.436Z,82.54
2022-11-09T13:40:54.969Z,82.43
2022-11-09T13:46:34.873Z,81.92
2022-11-09T13:51:59.237Z,81.62
2022-11-09T13:57:25.078Z,81.38
2022-11-09T14:02:59.431Z,81.54
2022-11-09T14:08:25.589Z,81.97
2022-11-09T14:14:06.351Z,81.52
2022-11-09T14:19:42.585Z,81.20
2022-11-09T14:25:16.823Z,79.89
2022-11-09T14:30:47.564Z,78.79
2022-11-09T14:36:19.242Z,78.36
2022-11-09T14:41:46.771Z,78.41
2022-11-09T14:47:18.887Z,78.67
2022-11-09T14:52:57.622Z,79.76
2022-11-09T14:58:22.755Z,79.46
2022-11-09T15:03:46.491Z,79.16
2022-11-09T15:09:18.757Z,78.82
2022-11-09T15:14:45.284Z,78.62
2022-11-09T15:20:33.020Z,78.74
2022-11-09T15:25:59.828Z,78.83
2022-11-09T15:31:29.555Z,78.96
2022-11-09T15:36:57.726Z,78.82
2022-11-09T15:42:25.858Z,79.21
2022-11-09T15:47:56.674Z,79.95
2022-11-09T15:53:34.622Z,80.72
2022-11-09T15:59:04.814Z,81.14
2022-11-09T16:04:29.323Z,81.43
2022-11-09T16:15:53.607Z,82.10
2022-11-09T16:21:18.719Z,82.81
2022-11-09T16:26:43.154Z,83.13
2022-11-09T16:32:09.690Z,83.36
2022-11-09T16:37:38.200Z,83.60
2022-11-09T16:43:03.614Z,84.28
2022-11-09T16:48:28.530Z,84.54
2022-11-09T16:53:52.636Z,84.96
2022-11-09T16:59:20.475Z,85.19
2022-11-09T17:04:50.540Z,85.16
2022-11-09T17:10:19.287Z,85.73
2022-11-09T17:15:44.794Z,86.33
2022-11-09T17:21:20.187Z,86.99
2022-11-09T17:26:51.853Z,87.26
2022-11-09T17:32:19.244Z,87.38
2022-11-09T17:37:55.209Z,88.70
2022-11-09T17:43:20.564Z,88.48
2022-11-09T17:48:46.674Z,89.27
2022-11-09T17:54:15.192Z,89.47
2022-11-09T17:59:38.643Z,89.08
2022-11-09T18:05:06.604Z,89.85
2022-11-09T18:10:31.573Z,89.88
2022-11-09T18:15:55.298Z,90.42
2022-11-09T18:21:20.399Z,90.45
2022-11-09T18:26:48.837Z,90.36
2022-11-09T18:32:14.355Z,90.91
2022-11-09T18:37:52.340Z,91.04
2022-11-09T18:43:37.604Z,91.16
2022-11-09T18:49:14.268Z,90.52
2022-11-09T18:54:38.067Z,91.25
2022-11-09T19:00:07.134Z,91.02
2022-11-09T19:05:32.052Z,90.82
2022-11-09T19:11:03.453Z,91.42
2022-11-09T19:16:38.792Z,91.10
2022-11-09T19:22:02.239Z,91.25
2022-11-09T19:27:36.761Z,91.36
2022-11-09T19:33:06.896Z,91.50
2022-11-09T19:38:31.165Z,91.49
2022-11-09T19:44:02.772Z,91.28
2022-11-09T19:49:31.849Z,91.61
2022-11-09T20:00:45.384Z,91.64
2022-11-09T20:06:28.787Z,91.70
2022-11-09T20:12:10.030Z,91.61
2022-11-09T20:17:41.613Z,91.82
2022-11-09T20:23:07.630Z,91.92
2022-11-09T20:28:34.926Z,91.99
2022-11-09T20:34:11.704Z,92.31
2022-11-09T20:39:44.145Z,93.14
2022-11-09T20:45:12.081Z,93.13
2022-11-09T20:50:46.453Z,92.99
2022-11-09T21:01:59.409Z,93.26
2022-11-09T21:13:27.330Z,93.23
2022-11-09T21:19:06.170Z,93.66
2022-11-09T21:24:47.891Z,93.22
2022-11-09T21:30:20.680Z,93.42
2022-11-09T21:35:51.875Z,93.37
2022-11-09T21:41:29.999Z,93.15
2022-11-09T21:46:54.584Z,93.32
2022-11-09T21:52:21.475Z,93.64
2022-11-09T21:57:47.197Z,93.68
2022-11-09T22:03:16.626Z,93.09
2022-11-09T22:08:40.841Z,92.57
2022-11-09T22:14:21.678Z,93.28
2022-11-09T22:20:03.526Z,94.16
2022-11-09T22:25:36.744Z,93.55
2022-11-09T22:31:10.053Z,93.34
2022-11-09T22:36:43.010Z,93.02
2022-11-09T22:42:06.391Z,92.58
2022-11-09T22:47:34.968Z,92.91
2022-11-09T22:53:28.277Z,92.99
2022-11-09T22:58:54.992Z,93.13
2022-11-09T23:04:22.095Z,93.22
2022-11-09T23:10:03.452Z,92.97
2022-11-09T23:15:27.101Z,92.94
2022-11-09T23:20:50.177Z,92.91
2022-11-09T23:26:21.308Z,92.81
2022-11-09T23:31:58.272Z,93.10
2022-11-09T23:37:33.015Z,92.72
2022-11-09T23:43:05.136Z,93.01
2022-11-09T23:48:39.829Z,92.63
2022-11-09T23:54:05.143Z,93.02
2022-11-09T23:59:34.740Z,93.14
